Latest Coastal Weather Observations for Cape Naturaliste

IDW60701

Issued at 10:15 am WST Saturday 30 August 2014 (issued every 10 minutes, with the page automatically refreshed every 10 minutes)

About coastal observations | Map of coastal stations | Coastal observations for WA | Marine services | Other Formats
Station Details ID: 009519 Name: CAPE NATURALISTE Lat: -33.54 Lon: 115.02 Height: 109.0 m
Data from the previous 72 hours. | See also: Recent months at Cape Naturaliste
Date/Time
WST
Temp

°C
Wind Pressure Rain
since 9am
mm
Weather Cloud Vis
km
Sea
Height
m
Swell
Dir
 
Speed
knots
Gust
knots
hPa Trend Height
m
Period
s
Dir
30/10:00am 14.5 SW 11 15 1016.2 - 0.0 - - - - - - -
30/09:30am 14.6 SSW 12 19 1016.2 - 0.0 - - - - - - -
30/09:00am 13.7 SW 11 16 1015.6 - 8.0 - - - - - - -
30/08:30am 13.5 SW 11 16 1015.2 - 8.0 - - - - - - -
30/08:00am 13.2 SW 12 17 1014.9 - 8.0 - - - - - - -
30/07:30am 13.2 SSW 12 16 1014.7 - 7.8 - - - - - - -
30/07:00am 13.3 SW 13 17 1014.1 - 7.8 - - - - - - -
30/06:30am 13.2 SSW 13 17 1013.8 - 7.8 - - - - - - -
30/06:00am 13.0 SSW 11 17 1013.6 - 7.8 - - - - - - -
30/05:30am 12.9 SW 15 19 1013.1 - 7.8 - - - - - - -
30/05:00am 13.3 SW 17 22 1012.8 - 7.8 - - - - - - -
30/04:30am 13.2 SW 18 23 1012.5 - 7.8 - - - - - - -
30/04:02am 13.0 SW 15 25 1012.5 - 7.8 - - - - - - -
30/04:00am 13.1 SW 17 25 1012.6 - 7.8 - - - - - - -
30/03:30am 13.7 SW 19 26 1012.1 - 7.8 - - - - - - -
30/03:00am 14.2 SW 16 23 1012.2 - 7.6 - - - - - - -
30/02:44am 14.3 SW 16 27 1011.9 - 7.6 - - - - - - -
30/02:30am 13.8 WSW 16 21 1011.9 - 7.6 - - - - - - -
30/02:00am 13.7 WSW 13 18 1012.0 - 7.6 - - - - - - -
30/01:30am 13.9 WSW 10 13 1012.1 - 7.6 - - - - - - -
30/01:00am 14.2 W 13 16 1011.9 - 6.2 - - - - - - -
30/12:30am 14.3 W 11 15 1011.9 - 6.0 - - - - - - -
30/12:00am 14.6 W 11 14 1011.8 - 5.2 - - - - - - -
 
Date/Time
WST
Temp

°C
Wind Pressure Rain
since 9am
mm
Weather Cloud Vis
km
Sea
Height
m
Swell
Dir
 
Speed
knots
Gust
knots
hPa Trend Height
m
Period
s
Dir
29/11:30pm 14.7 W 8 11 1011.8 - 5.2 - - - - - - -
29/11:00pm 14.7 WNW 10 13 1011.9 - 5.2 - - - - - - -
29/10:30pm 14.7 W 11 14 1012.0 - 5.2 - - - - - - -
29/10:00pm 14.3 W 13 17 1012.1 - 5.2 - - - - - - -
29/09:30pm 14.2 WNW 12 17 1011.9 - 5.2 - - - - - - -
29/09:00pm 14.5 WNW 15 18 1012.3 - 5.2 Recent precip. - - - - - -
29/08:30pm 14.2 WNW 14 17 1012.5 - 5.2 - - - - - - -
29/08:00pm 14.8 NW 11 15 1012.0 - 5.0 - - - - - - -
29/07:30pm 14.9 NW 13 18 1012.0 - 4.4 - - - - - - -
29/07:00pm 15.1 WNW 11 14 1011.7 - 4.0 - - - - - - -
29/06:30pm 15.1 WNW 12 15 1011.2 - 4.0 - - - - - - -
29/06:00pm 15.0 W 10 13 1010.9 - 3.8 Recent precip. - - - - - -
29/05:30pm 15.3 WNW 10 14 1011.2 - 3.4 - - - - - - -
29/05:00pm 15.4 WNW 10 13 1010.8 - 3.4 - - - - - - -
29/04:30pm 15.5 WNW 9 11 1010.6 - 3.4 - - - - - - -
29/04:00pm 15.5 W 8 10 1010.8 - 3.4 - - - - - - -
29/03:30pm 15.6 WNW 9 11 1010.8 - 3.4 - - - - - - -
29/03:00pm 16.4 WNW 8 10 1010.5 - 3.4 Recent precip. - - - - - -
29/02:30pm 16.2 W 8 11 1010.6 - 3.4 - - - - - - -
29/02:00pm 16.2 WSW 9 11 1010.5 - 3.2 - - - - - - -
29/01:30pm 15.6 WSW 9 12 1010.7 - 3.2 - - - - - - -
29/01:00pm 15.8 SW 13 17 1010.7 - 3.2 - - - - - - -
29/12:30pm 15.8 WSW 17 23 1010.7 - 3.0 - - - - - - -
29/12:25pm 15.4 WSW 19 27 1010.8 - 3.0 - - - - - - -
29/12:00pm 15.7 W 21 27 1010.7 - 3.0 Rain - - - - - -
29/11:30am 16.0 WNW 17 23 1010.9 - 2.6 - - - - - - -
29/11:00am 16.8 WNW 15 19 1010.9 - 1.6 - - - - - - -
29/10:30am 15.8 WNW 19 23 1011.2 - 1.6 - - - - - - -
29/10:00am 15.8 WNW 19 24 1011.0 - 1.0 - - - - - - -
29/09:30am 15.8 WNW 15 21 1011.0 - 0.6 - - - - - - -
29/09:00am 15.7 WNW 16 22 1010.8 - 14.8 Rain - - - - - -
29/08:30am 15.6 W 19 25 1011.1 - 14.0 - - - - - - -
29/08:00am 15.7 W 20 25 1010.6 - 13.6 - - - - - - -
29/07:30am 15.9 W 19 26 1010.1 - 13.4 - - - - - - -
29/07:00am 15.9 WNW 17 23 1010.1 - 12.8 - - - - - - -
29/06:30am 15.8 WNW 17 21 1009.8 - 12.0 - - - - - - -
29/06:00am 15.8 W 16 22 1009.7 - 11.8 - - - - - - -
29/05:30am 15.7 W 17 21 1009.5 - 11.8 - - - - - - -
29/05:00am 15.9 WNW 19 24 1009.5 - 11.8 - - - - - - -
29/04:30am 16.0 WNW 18 23 1009.3 - 11.8 - - - - - - -
29/04:00am 15.8 WNW 19 25 1009.0 - 11.8 - - - - - - -
29/03:30am 16.1 NW 18 25 1009.0 - 11.2 - - - - - - -
29/03:00am 15.9 WNW 22 29 1009.4 - 10.8 Rain - - - - - -
29/02:30am 16.6 NW 23 31 1009.4 - 10.4 - - - - - - -
29/02:03am 16.9 NW 21 34 1009.8 - 9.8 - - - - - - -
29/02:00am 16.8 NW 20 26 1009.8 - 9.6 - - - - - - -
29/01:30am 16.7 NW 19 28 1010.1 - 9.4 - - - - - - -
29/01:00am 16.5 NW 19 25 1010.2 - 9.2 - - - - - - -
29/12:30am 16.4 NW 19 25 1010.4 - 9.2 - - - - - - -
29/12:00am 16.2 NW 20 25 1010.8 - 9.2 Recent precip. - - - - - -
 
Date/Time
WST
Temp

°C
Wind Pressure Rain
since 9am
mm
Weather Cloud Vis
km
Sea
Height
m
Swell
Dir
 
Speed
knots
Gust
knots
hPa Trend Height
m
Period
s
Dir
28/11:37pm 16.6 NW 17 27 1010.8 - 9.0 - - - - - - -
28/11:30pm 16.3 NW 17 23 1010.9 - 8.4 - - - - - - -
28/11:00pm 16.6 NW 21 26 1011.4 - 6.2 - - - - - - -
28/10:30pm 16.2 NW 19 27 1011.7 - 6.2 - - - - - - -
28/10:00pm 15.7 NW 20 26 1011.5 - 6.2 - - - - - - -
28/09:30pm 15.9 NW 18 24 1011.8 - 6.0 - - - - - - -
28/09:16pm 14.8 WNW 22 29 1011.9 - 5.8 - - - - - - -
28/09:00pm 15.2 W 27 36 1012.1 - 4.4 Rain - - - - - -
28/08:55pm 16.0 W 26 36 1012.1 - 4.0 - - - - - - -
28/08:52pm 16.3 W 25 32 1012.1 - 3.8 - - - - - - -
28/08:48pm 17.5 WNW 22 32 1012.5 - 3.6 - - - - - - -
28/08:30pm 18.5 NW 24 32 1012.1 - 3.6 - - - - - - -
28/08:00pm 18.6 NW 24 37 1011.8 - 3.6 - - - - - - -
28/07:39pm 18.4 NW 22 32 1011.7 - 3.6 - - - - - - -
28/07:30pm 18.3 NW 23 29 1011.7 - 3.6 - - - - - - -
28/07:00pm 18.2 NW 21 28 1011.8 - 3.6 - - - - - - -
28/06:30pm 18.3 NNW 23 29 1011.4 - 3.6 - - - - - - -
28/06:00pm 18.3 NW 22 30 1011.5 - 3.6 - - - - - - -
28/05:30pm 18.2 NNW 23 28 1011.4 - 3.6 - - - - - - -
28/05:00pm 18.2 NNW 23 30 1011.4 - 3.6 - - - - - - -
28/04:30pm 18.1 NNW 21 29 1011.3 - 3.6 - - - - - - -
28/04:23pm 18.1 NNW 19 29 1011.3 - 3.6 - - - - - - -
28/04:00pm 18.1 NNW 19 26 1011.2 - 3.6 - - - - - - -
28/03:30pm 17.9 NNW 20 29 1011.2 - 3.6 - - - - - - -
28/03:19pm 17.8 NW 15 26 1011.3 - 3.6 - - - - - - -
28/03:00pm 17.5 NNW 18 23 1011.4 - 3.6 - - - - - - -
28/02:30pm 17.0 NW 16 23 1011.4 - 3.6 - - - - - - -
28/02:00pm 16.6 WNW 21 27 1011.8 - 3.6 - - - - - - -
28/01:30pm 16.5 WNW 25 31 1012.1 - 3.6 - - - - - - -
28/01:00pm 15.8 NW 23 38 1012.5 - 3.2 - - - - - - -
28/12:56pm 17.2 NW 20 38 1012.6 - 0.8 - - - - - - -
28/12:30pm 18.0 NNW 22 29 1012.8 - 0.0 - - - - - - -
28/12:00pm 18.7 NNW 23 28 1013.2 - 0.0 - - - - - - -
28/11:30am 18.9 NNW 22 28 1013.3 - 0.0 - - - - - - -
28/11:00am 18.5 NNW 23 30 1013.4 - 0.0 - - - - - - -
28/10:30am 18.7 NNW 24 32 1013.5 - 0.0 - - - - - - -
28/10:00am 19.2 NNW 24 32 1013.6 - 0.0 - - - - - - -
28/09:30am 18.9 NNW 21 27 1013.6 - 0.0 - - - - - - -
28/09:00am 18.8 NNW 21 26 1013.8 - 0.0 - - - - - - -
28/08:41am 18.5 NNW 21 32 1013.6 - 0.0 - - - - - - -
28/08:30am 18.3 NNW 21 29 1013.7 - 0.0 - - - - - - -
28/08:00am 17.9 NNW 22 30 1013.6 - 0.0 - - - - - - -
28/07:30am 17.8 NNW 21 30 1013.5 - 0.0 - - - - - - -
28/07:00am 17.8 NNW 23 32 1013.6 - 0.0 - - - - - - -
28/06:52am 17.7 NNW 21 32 1013.5 - 0.0 - - - - - - -
28/06:30am 17.7 NNW 21 30 1013.2 - 0.0 - - - - - - -
28/06:00am 17.6 NNW 20 29 1013.1 - 0.0 - - - - - - -
28/05:30am 17.7 NNW 21 29 1013.1 - 0.0 - - - - - - -
28/05:01am 17.7 N 21 31 1013.1 - 0.0 - - - - - - -
28/05:00am 17.7 N 22 31 1013.1 - 0.0 - - - - - - -
28/04:30am 17.7 N 22 30 1012.8 - 0.0 - - - - - - -
28/04:00am 17.5 N 20 27 1013.1 - 0.0 - - - - - - -
28/03:30am 17.5 N 21 28 1013.3 - 0.0 - - - - - - -
28/03:00am 17.4 N 20 26 1013.8 - 0.0 - - - - - - -
28/02:30am 17.0 N 18 24 1014.1 - 0.0 - - - - - - -
28/02:00am 16.7 N 18 24 1014.6 - 0.0 - - - - - - -
28/01:30am 16.6 N 18 24 1015.1 - 0.0 - - - - - - -
28/01:00am 16.5 N 18 23 1015.2 - 0.0 - - - - - - -
28/12:30am 16.3 N 17 23 1015.5 - 0.0 - - - - - - -
28/12:00am 16.0 N 15 20 1016.0 - 0.0 - - - - - - -
 
Date/Time
WST
Temp

°C
Wind Pressure Rain
since 9am
mm
Weather Cloud Vis
km
Sea
Height
m
Swell
Dir
 
Speed
knots
Gust
knots
hPa Trend Height
m
Period
s
Dir
27/11:30pm 15.8 N 15 19 1016.5 - 0.0 - - - - - - -
27/11:00pm 15.6 N 12 17 1016.9 - 0.0 - - - - - - -
27/10:30pm 15.5 NNW 12 16 1017.2 - 0.0 - - - - - - -
27/10:00pm 15.5 NNW 12 16 1017.5 - 0.0 - - - - - - -
27/09:30pm 15.4 NW 12 16 1018.0 - 0.0 - - - - - - -
27/09:00pm 15.5 NW 12 17 1018.2 - 0.0 - - - - - - -
27/08:30pm 15.9 NW 13 18 1018.0 - 0.0 - - - - - - -
27/08:00pm 15.8 NW 13 19 1017.9 - 0.0 - - - - - - -
27/07:30pm 15.6 NW 13 17 1017.5 - 0.0 - - - - - - -
27/07:00pm 15.5 WNW 16 20 1017.9 - 0.0 - - - - - - -
27/06:30pm 15.6 WNW 19 24 1017.9 - 0.0 - - - - - - -
27/06:00pm 15.6 WNW 19 24 1017.6 - 0.0 - - - - - - -
27/05:30pm 15.7 WNW 20 26 1017.3 - 0.0 - - - - - - -
27/05:00pm 15.8 WNW 18 23 1017.6 - 0.0 - - - - - - -
27/04:30pm 16.3 NW 16 22 1017.4 - 0.0 - - - - - - -
27/04:00pm 16.7 NW 17 22 1017.4 - 0.0 - - - - - - -
27/03:30pm 16.7 NNW 17 27 1017.6 - 0.0 - - - - - - -
27/03:29pm 16.6 NNW 17 27 1017.5 - 0.0 - - - - - - -
27/03:00pm 16.8 NNW 17 23 1017.6 - 0.0 - - - - - - -
27/02:30pm 17.0 NNW 17 22 1017.8 - 0.0 - - - - - - -
27/02:00pm 17.4 N 17 23 1018.1 - 0.0 - - - - - - -
27/01:30pm 18.4 N 17 22 1017.6 - 0.0 - - - - - - -
27/01:00pm 18.6 N 15 20 1018.0 - 0.0 - - - - - - -
27/12:30pm 17.2 NNW 13 19 1018.8 - 0.0 - - - - - - -
27/12:00pm 18.3 N 12 16 1019.1 - 0.0 - - - - - - -
27/11:30am 17.2 N 12 17 1019.7 - 0.0 - - - - - - -
27/11:00am 16.9 NNW 12 17 1020.5 - 0.0 - - - - - - -
27/10:30am 15.0 NNW 10 13 1020.9 - 0.0 - - - - - - -

Other Formats:

Comma delimited format used in spreadsheet applications
http://www.bom.gov.au/fwo/IDW60701/IDW60701.94600.axf

JavaScript Object Notation format (JSON) in row-major order
http://www.bom.gov.au/fwo/IDW60701/IDW60701.94600.json